Terminal Aerodrome Forecast
Issued by NWS

Home | Current Version | Previous Version | Text Only | Print | Product List | Glossary On
Versions: 1 2 3 4 5 6 7 8 9 10 11 12 13 14 15 16 17
845
FTUS43 KAPX 252320
TAFMBL
TAF
KMBL 252320Z 2600/2624 36008KT P6SM SKC
     FM260100 01004KT P6SM SKC
     FM261400 22005KT P6SM FEW220
     FM261700 23009KT P6SM SCT220=

USA.gov is the U.S. government's official web portal to all federal, state and local government web resources and services.